createdAt,value
2022-09-06T00:00:38.841Z,99637.79
2022-09-06T00:03:43.325Z,99644.13
2022-09-06T00:06:47.866Z,99643.77
2022-09-06T00:09:52.441Z,99641.54
2022-09-06T00:12:57.109Z,99642.41
2022-09-06T00:16:06.846Z,99642.39
2022-09-06T00:19:11.452Z,99636.84
2022-09-06T00:22:16.159Z,99634.42
2022-09-06T00:25:20.782Z,99628.89
2022-09-06T00:28:25.336Z,99627.66
2022-09-06T00:31:29.918Z,99631.45
2022-09-06T00:34:34.490Z,99626.98
2022-09-06T00:37:40.913Z,99626.94
2022-09-06T00:40:45.382Z,99618.82
2022-09-06T00:43:49.913Z,99621.08
2022-09-06T00:46:55.797Z,99619.52
2022-09-06T00:50:01.343Z,99627.04
2022-09-06T00:53:05.873Z,99631.46
2022-09-06T00:56:10.342Z,99627.49
2022-09-06T00:59:15.191Z,99621.93
2022-09-06T01:02:20.269Z,99621.69
2022-09-06T01:05:27.894Z,99624.96
2022-09-06T01:08:41.482Z,99626.70
2022-09-06T01:11:58.373Z,99626.04
2022-09-06T01:15:16.953Z,99623.27
2022-09-06T01:18:25.454Z,99626.91
2022-09-06T01:21:39.098Z,99627.05
2022-09-06T01:24:56.184Z,99626.64
2022-09-06T01:28:16.303Z,99625.85
2022-09-06T01:31:24.976Z,99628.14
2022-09-06T01:34:32.994Z,99624.39
2022-09-06T01:37:37.872Z,99626.67
2022-09-06T01:40:42.230Z,99624.36
2022-09-06T01:43:48.785Z,99629.52
2022-09-06T01:46:57.042Z,99626.64
2022-09-06T01:50:13.970Z,99623.16
2022-09-06T01:53:31.321Z,99617.62
2022-09-06T01:56:39.076Z,99619.84
2022-09-06T01:59:57.857Z,99614.34
2022-09-06T02:03:07.633Z,99614.65
2022-09-06T02:06:14.500Z,99613.36
2022-09-06T02:09:22.057Z,99616.27
2022-09-06T02:12:27.294Z,99618.73
2022-09-06T02:15:34.671Z,99618.37
2022-09-06T02:18:42.071Z,99614.98
2022-09-06T02:21:47.875Z,99613.77
2022-09-06T02:24:54.117Z,99609.73
2022-09-06T02:27:58.697Z,99604.96
2022-09-06T02:31:05.192Z,99606.57
2022-09-06T02:34:10.557Z,99609.17
2022-09-06T02:37:16.632Z,99610.05
2022-09-06T02:40:21.454Z,99604.02
2022-09-06T02:43:26.031Z,99605.12
2022-09-06T02:46:31.007Z,99605.71
2022-09-06T02:49:35.513Z,99599.98
2022-09-06T02:52:39.949Z,99597.39
2022-09-06T02:55:44.522Z,99591.83
2022-09-06T02:58:50.114Z,99595.02
2022-09-06T03:01:54.589Z,99603.61
2022-09-06T03:04:59.051Z,99604.73
2022-09-06T03:08:03.785Z,99596.58
2022-09-06T03:11:08.237Z,99596.51
2022-09-06T03:14:12.689Z,99590.26
2022-09-06T03:17:17.135Z,99584.02
2022-09-06T03:20:21.693Z,99579.23
2022-09-06T03:23:27.570Z,99582.33
2022-09-06T03:26:32.095Z,99588.14
2022-09-06T03:29:36.512Z,99588.00
2022-09-06T03:32:41.101Z,99582.98
2022-09-06T03:35:50.454Z,99582.96
2022-09-06T03:38:55.301Z,99585.87
2022-09-06T03:41:59.756Z,99592.11
2022-09-06T03:45:04.177Z,99595.98
2022-09-06T03:48:08.698Z,99598.70
2022-09-06T03:51:13.181Z,99601.64
2022-09-06T03:54:17.630Z,99599.55
2022-09-06T03:57:22.137Z,99591.87
2022-09-06T04:00:26.624Z,99591.17
2022-09-06T04:03:31.153Z,99591.23
2022-09-06T04:06:35.626Z,99585.87
2022-09-06T04:09:40.157Z,99585.98
2022-09-06T04:12:45.119Z,99587.73
2022-09-06T04:15:49.854Z,99581.88
2022-09-06T04:18:54.213Z,99581.45
2022-09-06T04:21:58.657Z,99583.30
2022-09-06T04:25:03.113Z,99591.69
2022-09-06T04:28:07.613Z,99593.45
2022-09-06T04:31:12.085Z,99595.55
2022-09-06T04:34:16.903Z,99596.39
2022-09-06T04:37:21.381Z,99599.27
2022-09-06T04:40:25.859Z,99597.36
2022-09-06T04:43:30.457Z,99593.67
2022-09-06T04:46:34.945Z,99590.74
2022-09-06T04:49:39.506Z,99590.79
2022-09-06T04:52:44.020Z,99588.89
2022-09-06T04:55:48.481Z,99591.27
2022-09-06T04:58:53.655Z,99590.97
2022-09-06T05:01:58.219Z,99595.09
2022-09-06T05:05:02.625Z,99596.02
2022-09-06T05:08:07.060Z,99594.61
2022-09-06T05:11:12.424Z,99593.45
2022-09-06T05:14:16.872Z,99593.83
2022-09-06T05:17:21.306Z,99602.20
2022-09-06T05:20:25.886Z,99600.11
2022-09-06T05:23:30.400Z,99602.48
2022-09-06T05:26:34.858Z,99606.92
2022-09-06T05:29:39.433Z,99603.35
2022-09-06T05:32:43.984Z,99604.84
2022-09-06T05:35:49.762Z,99608.79
2022-09-06T05:38:54.961Z,99605.63
2022-09-06T05:41:59.401Z,99604.23
2022-09-06T05:45:03.982Z,99601.58
2022-09-06T05:48:08.854Z,99608.46
2022-09-06T05:51:14.162Z,99610.67
2022-09-06T05:54:18.711Z,99611.12
2022-09-06T05:57:23.267Z,99613.70
2022-09-06T06:00:27.789Z,99619.11
2022-09-06T06:03:32.237Z,99615.23
2022-09-06T06:06:36.750Z,99612.96
2022-09-06T06:09:41.240Z,99613.13
2022-09-06T06:12:45.681Z,99611.38
2022-09-06T06:15:50.252Z,99607.02
2022-09-06T06:18:55.139Z,99609.21
2022-09-06T06:21:59.690Z,99611.60
2022-09-06T06:25:04.530Z,99612.59
2022-09-06T06:28:09.145Z,99615.09
2022-09-06T06:31:13.774Z,99613.02
2022-09-06T06:34:22.163Z,99614.40
2022-09-06T06:37:26.674Z,99609.20
2022-09-06T06:40:31.107Z,99609.73
2022-09-06T06:43:38.010Z,99606.81
2022-09-06T06:46:42.929Z,99604.85
2022-09-06T06:49:48.744Z,99602.88
2022-09-06T06:52:54.301Z,99602.72
2022-09-06T06:55:58.791Z,99605.08
2022-09-06T06:59:04.529Z,99605.23
2022-09-06T07:02:09.175Z,99604.79
2022-09-06T07:08:38.633Z,99611.90
2022-09-06T07:11:43.159Z,99605.70
2022-09-06T07:14:47.667Z,99603.27
2022-09-06T07:17:53.200Z,99610.46
2022-09-06T07:24:24.362Z,99605.55
2022-09-06T07:30:56.413Z,99612.92
2022-09-06T07:34:01.733Z,99616.30
2022-09-06T07:37:06.242Z,99611.20
2022-09-06T07:40:11.870Z,99613.27
2022-09-06T07:43:16.502Z,99615.45
2022-09-06T07:46:21.030Z,99613.30
2022-09-06T07:49:25.530Z,99607.22
2022-09-06T07:55:54.722Z,99612.34
2022-09-06T07:58:59.137Z,99616.06
2022-09-06T08:02:03.682Z,99617.84
2022-09-06T08:11:57.946Z,99612.61
2022-09-06T08:15:02.430Z,99605.83
2022-09-06T08:18:07.370Z,99606.84
2022-09-06T08:21:13.130Z,99602.11
2022-09-06T08:24:17.683Z,99601.28
2022-09-06T08:27:22.114Z,99608.23
2022-09-06T08:30:27.834Z,99604.50
2022-09-06T08:33:32.328Z,99602.21
2022-09-06T08:36:37.121Z,99597.70
2022-09-06T08:39:41.726Z,99597.45
2022-09-06T08:42:46.367Z,99595.10
2022-09-06T08:45:55.807Z,99592.05
2022-09-06T08:49:00.475Z,99598.89
2022-09-06T08:52:18.396Z,99597.70
2022-09-06T08:55:27.913Z,99591.83
2022-09-06T08:58:44.521Z,99588.34
2022-09-06T09:01:57.084Z,99586.72
2022-09-06T09:05:05.657Z,99587.50
2022-09-06T09:08:16.043Z,99591.78
2022-09-06T09:11:22.059Z,99585.25
2022-09-06T09:14:29.083Z,99585.60
2022-09-06T09:17:33.895Z,99579.75
2022-09-06T09:20:38.627Z,99576.86
2022-09-06T09:23:43.193Z,99573.41
2022-09-06T09:26:50.843Z,99572.70
2022-09-06T09:33:31.576Z,99568.97
2022-09-06T09:36:36.093Z,99566.42
2022-09-06T09:39:41.632Z,99564.51
2022-09-06T09:42:46.291Z,99564.03
2022-09-06T09:46:08.882Z,99562.45
2022-09-06T09:49:14.688Z,99557.70
2022-09-06T09:52:24.927Z,99542.52
2022-09-06T09:55:29.609Z,99542.13
2022-09-06T09:58:36.763Z,99537.08
2022-09-06T10:01:41.285Z,99536.61
2022-09-06T10:04:48.368Z,99534.05
2022-09-06T10:07:53.995Z,99537.52
2022-09-06T10:10:58.966Z,99539.17
2022-09-06T10:14:12.617Z,99533.05
2022-09-06T10:17:30.662Z,99528.92
2022-09-06T10:20:36.876Z,99529.02
2022-09-06T10:27:16.092Z,99519.63
2022-09-06T10:30:22.361Z,99511.84
2022-09-06T10:33:31.084Z,99506.16
2022-09-06T10:36:36.837Z,99503.33
2022-09-06T10:39:49.401Z,99499.33
2022-09-06T10:42:54.377Z,99500.19
2022-09-06T10:46:03.592Z,99492.40
2022-09-06T10:49:11.705Z,99489.16
2022-09-06T10:52:18.690Z,99490.10
2022-09-06T10:55:24.239Z,99493.10
2022-09-06T11:01:59.544Z,99486.61
2022-09-06T11:08:53.586Z,99489.17
2022-09-06T11:12:04.945Z,99478.05
2022-09-06T11:15:12.085Z,99474.73
2022-09-06T11:18:19.621Z,99468.92
2022-09-06T11:21:32.305Z,99461.33
2022-09-06T11:24:46.209Z,99461.13
2022-09-06T11:27:57.335Z,99461.61
2022-09-06T11:31:03.801Z,99458.32
2022-09-06T11:34:10.469Z,99457.45
2022-09-06T11:37:25.854Z,99457.37
2022-09-06T11:40:31.022Z,99461.20
2022-09-06T11:43:46.168Z,99459.63
2022-09-06T11:47:07.844Z,99451.39
2022-09-06T11:50:26.074Z,99450.50
2022-09-06T11:53:31.138Z,99445.30
2022-09-06T11:56:40.815Z,99439.15
2022-09-06T11:59:53.466Z,99441.59
2022-09-06T12:06:23.380Z,99441.45
2022-09-06T12:09:31.675Z,99435.53
2022-09-06T12:12:43.156Z,99435.92
2022-09-06T12:15:53.398Z,99430.15
2022-09-06T12:19:02.028Z,99426.70
2022-09-06T12:22:26.657Z,99421.11
2022-09-06T12:25:48.451Z,99425.89
2022-09-06T12:28:53.830Z,99418.21
2022-09-06T12:31:58.623Z,99418.94
2022-09-06T12:38:28.771Z,99411.63
2022-09-06T12:41:34.159Z,99417.13
2022-09-06T12:44:39.220Z,99419.16
2022-09-06T12:47:43.725Z,99414.08
2022-09-06T12:51:01.661Z,99408.84
2022-09-06T12:54:07.213Z,99405.23
2022-09-06T12:57:15.978Z,99402.67
2022-09-06T13:00:20.710Z,99404.86
2022-09-06T13:03:27.245Z,99398.11
2022-09-06T13:06:34.333Z,99396.58
2022-09-06T13:09:39.756Z,99390.69
2022-09-06T13:12:46.261Z,99390.35
2022-09-06T13:15:50.779Z,99388.34
2022-09-06T13:18:55.793Z,99380.80
2022-09-06T13:22:00.866Z,99382.34
2022-09-06T13:25:05.822Z,99380.77
2022-09-06T13:28:10.267Z,99382.27
2022-09-06T13:31:21.275Z,99392.28
2022-09-06T13:34:26.674Z,99394.21
2022-09-06T13:37:33.856Z,99394.82
2022-09-06T13:41:09.650Z,99392.94
2022-09-06T13:44:17.275Z,99386.45
2022-09-06T13:47:21.919Z,99381.77
2022-09-06T13:50:28.008Z,99375.98
2022-09-06T13:53:33.000Z,99373.61
2022-09-06T13:56:37.675Z,99367.96
2022-09-06T13:59:43.069Z,99360.60
2022-09-06T14:02:49.093Z,99360.18
2022-09-06T14:05:53.594Z,99357.84
2022-09-06T14:09:13.763Z,99357.42
2022-09-06T14:12:18.478Z,99350.67
2022-09-06T14:15:23.453Z,99345.46
2022-09-06T14:18:28.474Z,99345.61
2022-09-06T14:21:33.066Z,99339.70
2022-09-06T14:24:37.569Z,99337.89
2022-09-06T14:27:42.083Z,99340.17
2022-09-06T14:30:46.693Z,99339.25
2022-09-06T14:33:51.194Z,99339.73
2022-09-06T14:36:55.650Z,99335.45
2022-09-06T14:40:00.179Z,99333.53
2022-09-06T14:43:05.061Z,99329.15
2022-09-06T14:46:10.295Z,99326.39
2022-09-06T14:49:14.970Z,99321.58
2022-09-06T14:52:20.037Z,99323.98
2022-09-06T14:55:24.887Z,99325.31
2022-09-06T14:58:29.387Z,99327.01
2022-09-06T15:01:38.665Z,99326.92
2022-09-06T15:04:43.299Z,99323.09
2022-09-06T15:07:48.094Z,99323.01
2022-09-06T15:10:55.319Z,99324.89
2022-09-06T15:14:00.251Z,99329.39
2022-09-06T15:17:08.946Z,99332.43
2022-09-06T15:20:13.939Z,99327.91
2022-09-06T15:23:26.040Z,99323.27
2022-09-06T15:26:30.901Z,99320.00
2022-09-06T15:29:35.491Z,99314.55
2022-09-06T15:32:39.962Z,99314.61
2022-09-06T15:35:44.642Z,99314.68
2022-09-06T15:38:50.115Z,99311.51
2022-09-06T15:41:54.626Z,99311.69
2022-09-06T15:44:59.066Z,99314.04
2022-09-06T15:48:03.513Z,99311.59
2022-09-06T15:51:08.195Z,99310.34
2022-09-06T15:54:13.013Z,99313.02
2022-09-06T15:57:18.127Z,99310.48
2022-09-06T16:00:23.818Z,99305.78
2022-09-06T16:03:28.659Z,99301.31
2022-09-06T16:06:33.930Z,99302.23
2022-09-06T16:09:38.471Z,99303.95
2022-09-06T16:12:44.671Z,99300.58
2022-09-06T16:15:58.070Z,99298.98
2022-09-06T16:19:02.593Z,99296.02
2022-09-06T16:22:07.025Z,99293.45
2022-09-06T16:25:11.522Z,99288.55
2022-09-06T16:28:16.106Z,99287.66
2022-09-06T16:31:21.082Z,99287.55
2022-09-06T16:34:26.279Z,99285.89
2022-09-06T16:37:30.728Z,99286.10
2022-09-06T16:40:35.298Z,99286.77
2022-09-06T16:43:39.816Z,99282.02
2022-09-06T16:46:44.603Z,99285.48
2022-09-06T16:49:49.110Z,99286.67
2022-09-06T16:52:53.730Z,99289.38
2022-09-06T16:55:58.202Z,99287.86
2022-09-06T16:59:04.233Z,99284.05
2022-09-06T17:02:08.848Z,99279.45
2022-09-06T17:05:14.552Z,99281.38
2022-09-06T17:08:19.141Z,99286.33
2022-09-06T17:11:23.998Z,99284.73
2022-09-06T17:14:28.513Z,99287.85
2022-09-06T17:17:33.314Z,99285.46
2022-09-06T17:20:39.139Z,99288.05
2022-09-06T17:23:43.701Z,99284.04
2022-09-06T17:26:48.191Z,99281.42
2022-09-06T17:29:52.777Z,99280.11
2022-09-06T17:32:57.294Z,99280.47
2022-09-06T17:36:08.652Z,99285.60
2022-09-06T17:39:14.896Z,99286.67
2022-09-06T17:42:20.006Z,99290.75
2022-09-06T17:45:24.527Z,99296.02
2022-09-06T17:48:30.264Z,99296.50
2022-09-06T17:51:35.481Z,99298.73
2022-09-06T17:54:39.961Z,99299.52
2022-09-06T17:57:44.326Z,99300.63
2022-09-06T18:00:48.825Z,99305.34
2022-09-06T18:03:53.542Z,99305.48
2022-09-06T18:06:58.067Z,99305.80
2022-09-06T18:10:02.633Z,99311.59
2022-09-06T18:13:07.323Z,99312.91
2022-09-06T18:16:12.293Z,99309.03
2022-09-06T18:19:17.738Z,99309.12
2022-09-06T18:22:22.218Z,99311.43
2022-09-06T18:25:28.683Z,99309.42
2022-09-06T18:28:33.913Z,99305.13
2022-09-06T18:31:38.709Z,99306.08
2022-09-06T18:34:43.216Z,99306.20
2022-09-06T18:37:47.720Z,99313.11
2022-09-06T18:40:55.914Z,99315.32
2022-09-06T18:44:02.808Z,99318.88
2022-09-06T18:47:08.313Z,99321.34
2022-09-06T18:50:12.934Z,99320.45
2022-09-06T18:53:18.369Z,99321.34
2022-09-06T18:56:22.896Z,99316.69
2022-09-06T18:59:27.519Z,99316.05
2022-09-06T19:02:32.483Z,99319.69
2022-09-06T19:05:37.548Z,99315.76
2022-09-06T19:08:42.462Z,99312.35
2022-09-06T19:11:51.465Z,99309.64
2022-09-06T19:14:55.986Z,99311.61
2022-09-06T19:18:00.514Z,99311.23
2022-09-06T19:21:06.514Z,99308.23
2022-09-06T19:24:11.661Z,99309.40
2022-09-06T19:27:16.477Z,99311.46
2022-09-06T19:30:20.905Z,99307.53
2022-09-06T19:33:25.784Z,99305.98
2022-09-06T19:36:32.061Z,99304.58
2022-09-06T19:39:37.445Z,99304.87
2022-09-06T19:42:42.043Z,99305.48
2022-09-06T19:45:46.695Z,99302.44
2022-09-06T19:48:51.969Z,99298.69
2022-09-06T19:51:56.475Z,99295.06
2022-09-06T19:55:00.917Z,99292.23
2022-09-06T19:58:08.899Z,99297.73
2022-09-06T20:01:18.001Z,99297.86
2022-09-06T20:04:22.575Z,99296.50
2022-09-06T20:07:28.485Z,99292.00
2022-09-06T20:10:32.986Z,99288.28
2022-09-06T20:13:37.955Z,99284.02
2022-09-06T20:16:43.158Z,99285.31
2022-09-06T20:19:48.382Z,99283.65
2022-09-06T20:22:52.899Z,99283.89
2022-09-06T20:26:01.112Z,99285.27
2022-09-06T20:29:06.801Z,99290.52
2022-09-06T20:32:11.242Z,99284.71
2022-09-06T20:35:15.794Z,99289.98
2022-09-06T20:38:20.334Z,99285.89
2022-09-06T20:41:25.582Z,99285.12
2022-09-06T20:44:30.033Z,99289.53
2022-09-06T20:47:34.478Z,99287.73
2022-09-06T20:50:38.929Z,99283.77
2022-09-06T20:53:43.404Z,99282.93
2022-09-06T20:56:47.987Z,99284.65
2022-09-06T20:59:52.379Z,99284.58
2022-09-06T21:02:57.105Z,99281.10
2022-09-06T21:06:03.221Z,99279.66
2022-09-06T21:09:08.546Z,99279.94
2022-09-06T21:12:13.012Z,99276.14
2022-09-06T21:15:17.649Z,99274.17
2022-09-06T21:18:23.021Z,99278.15
2022-09-06T21:21:28.106Z,99275.95
2022-09-06T21:24:33.326Z,99279.41
2022-09-06T21:27:38.037Z,99282.27
2022-09-06T21:30:42.570Z,99284.89
2022-09-06T21:33:47.758Z,99281.38
